Time;durP1;ratioP1;P1;durP2;ratioP2;P2;SDS_P1;SDS_P2;PMS_P1;PMS_P2;Temp;Humidity;BMP_temperature;BMP_pressure;BME280_temperature;BME280_humidity;BME280_pressure;Samples;Min_cycle;Max_cycle;Signal;HPM_P1;HPM_P2
2021/10/28 00:13:19;;;;;;;13.05;6.75;;;;;;;9.70;83.53;99365.94;5056872;28;20101;-59
2021/10/28 00:15:54;;;;;;;11.38;7.53;;;;;;;9.65;83.77;99356.88;5064575;28;20112;-59
2021/10/28 00:18:28;;;;;;;11.73;7.40;;;;;;;9.55;84.14;99346.38;5062222;28;20409;-59
2021/10/28 00:20:56;;;;;;;10.38;6.75;;;;;;;9.32;84.04;99304.84;5059747;28;20055;-59
2021/10/28 00:23:21;;;;;;;12.02;6.88;;;;;;;9.30;83.46;99295.56;5063405;28;20028;-59
2021/10/28 00:25:47;;;;;;;10.95;6.82;;;;;;;9.61;83.72;99351.09;5053970;28;20017;-59
2021/10/28 00:28:12;;;;;;;10.65;6.38;;;;;;;9.52;84.22;99346.63;5049364;28;20670;-59
2021/10/28 00:30:38;;;;;;;11.82;6.43;;;;;;;9.39;84.13;99305.22;5070369;28;20107;-59
2021/10/28 00:33:03;;;;;;;11.48;7.20;;;;;;;9.54;84.23;99339.53;5055107;28;20054;-59
2021/10/28 00:35:29;;;;;;;11.02;6.70;;;;;;;9.23;84.54;99293.41;5064454;28;20512;-59
2021/10/28 00:37:54;;;;;;;11.15;6.97;;;;;;;9.42;84.65;99321.38;5038307;28;20063;-59
2021/10/28 00:40:19;;;;;;;10.25;7.07;;;;;;;9.17;84.48;99280.13;5032148;28;20348;-59
2021/10/28 00:42:45;;;;;;;11.18;6.97;;;;;;;9.42;84.21;99321.38;5005568;28;20039;-59
2021/10/28 00:45:12;;;;;;;10.57;6.25;;;;;;;9.25;83.82;99288.13;5047128;28;20028;-59
2021/10/28 00:47:39;;;;;;;10.27;6.20;;;;;;;9.22;83.87;99281.41;5059734;28;20670;-59
2021/10/28 00:50:06;;;;;;;9.90;6.03;;;;;;;9.54;83.63;99329.16;5060797;28;20028;-59
2021/10/28 00:52:33;;;;;;;11.40;6.47;;;;;;;9.57;83.55;99341.91;5055955;28;20032;-59
2021/10/28 00:54:59;;;;;;;10.05;6.45;;;;;;;9.56;84.22;99335.03;5040016;28;20036;-59
2021/10/28 00:57:24;;;;;;;10.07;6.57;;;;;;;9.27;83.32;99280.22;5054032;28;20040;-59
2021/10/28 00:59:50;;;;;;;9.90;5.95;;;;;;;9.60;83.09;99333.84;5063961;28;20523;-59
2021/10/28 01:02:16;;;;;;;11.80;6.30;;;;;;;9.57;83.11;99334.91;5053007;28;20052;-59
2021/10/28 01:04:42;;;;;;;11.40;7.22;;;;;;;9.53;83.40;99333.53;5059955;28;20105;-62
2021/10/28 01:07:08;;;;;;;11.77;6.65;;;;;;;9.45;84.17;99330.69;5068271;28;20542;-59
2021/10/28 01:09:33;;;;;;;10.55;6.40;;;;;;;9.44;84.18;99321.25;5040516;28;20067;-59
2021/10/28 01:11:59;;;;;;;8.60;6.00;;;;;;;9.35;84.62;99319.38;5043048;28;20115;-59
2021/10/28 01:14:24;;;;;;;13.05;6.68;;;;;;;9.46;84.39;99334.13;5040375;28;20048;-59
2021/10/28 01:16:55;;;;;;;9.90;6.28;;;;;;;9.40;84.49;99325.88;5064976;28;20433;-60
2021/10/28 01:19:22;;;;;;;11.02;6.57;;;;;;;9.43;83.78;99325.59;5054289;28;20032;-59
2021/10/28 01:21:48;;;;;;;9.10;6.15;;;;;;;9.42;83.84;99317.97;5057019;28;20024;-59
2021/10/28 01:24:13;;;;;;;11.60;7.05;;;;;;;9.48;83.85;99324.44;5048416;28;20020;-59
2021/10/28 01:26:39;;;;;;;10.98;6.70;;;;;;;9.48;84.13;99316.66;5061212;28;20041;-59
2021/10/28 01:29:04;;;;;;;10.18;6.43;;;;;;;9.41;84.52;99309.31;5045583;28;20036;-59
2021/10/28 01:31:32;;;;;;;8.70;5.85;;;;;;;9.38;84.52;99313.94;5062808;28;20039;-59
2021/10/28 01:33:59;;;;;;;10.05;6.03;;;;;;;9.38;84.53;99311.34;5059800;28;20035;-59
2021/10/28 01:36:26;;;;;;;9.40;6.20;;;;;;;9.35;84.54;99309.00;5063548;28;20115;-59
2021/10/28 01:38:54;;;;;;;11.70;6.30;;;;;;;9.35;84.83;99309.00;5057258;28;20029;-59
2021/10/28 01:41:19;;;;;;;9.57;5.88;;;;;;;9.30;84.80;99301.56;5057300;28;20060;-59
2021/10/28 01:43:45;;;;;;;9.23;5.32;;;;;;;9.31;84.64;99298.03;5049838;28;20052;-59
2021/10/28 01:46:11;;;;;;;10.57;6.32;;;;;;;9.17;83.66;99264.56;5043857;28;20033;-58
2021/10/28 01:48:40;;;;;;;10.43;6.85;;;;;;;9.36;84.49;99303.69;5039068;28;20017;-59
2021/10/28 01:51:09;;;;;;;9.98;6.10;;;;;;;9.33;84.89;99298.75;5033320;28;21591;-59
2021/10/28 01:53:39;;;;;;;9.80;5.88;;;;;;;9.31;84.70;99300.63;5064187;28;20028;-59
2021/10/28 01:56:06;;;;;;;10.80;6.30;;;;;;;9.25;84.64;99290.72;5041388;28;20056;-59
2021/10/28 01:58:31;;;;;;;9.60;6.10;;;;;;;9.30;84.77;99298.16;5041701;28;20035;-59
2021/10/28 02:00:57;;;;;;;9.38;5.57;;;;;;;9.19;84.99;99284.22;5053829;28;20032;-58
2021/10/28 02:03:22;;;;;;;11.82;5.75;;;;;;;9.15;85.19;99297.56;5046026;28;20074;-59
2021/10/28 02:05:49;;;;;;;9.23;5.60;;;;;;;9.25;85.18;99293.31;5067378;28;20047;-59
2021/10/28 02:08:15;;;;;;;8.73;5.88;;;;;;;9.16;85.23;99283.66;5068345;28;20475;-60
2021/10/28 02:10:40;;;;;;;9.38;5.65;;;;;;;9.12;84.84;99277.06;5050678;28;20296;-60
2021/10/28 02:13:06;;;;;;;8.68;5.25;;;;;;;9.24;84.05;99281.28;5059896;28;20035;-59
2021/10/28 02:15:31;;;;;;;9.25;5.80;;;;;;;9.20;84.52;99285.06;5050678;28;20111;-59
2021/10/28 02:17:57;;;;;;;10.35;5.95;;;;;;;9.17;84.47;99280.13;5056826;28;20028;-59
2021/10/28 02:20:22;;;;;;;11.43;6.05;;;;;;;9.16;84.48;99281.03;5045743;28;20024;-59
2021/10/28 02:22:48;;;;;;;9.80;5.10;;;;;;;9.01;83.35;99237.19;5066712;28;20547;-59
2021/10/28 02:25:14;;;;;;;9.43;5.60;;;;;;;9.30;83.33;99267.81;5031113;28;20029;-59
2021/10/28 02:27:40;;;;;;;9.98;5.32;;;;;;;8.97;83.59;99228.00;5057763;28;20245;-59
2021/10/28 02:30:07;;;;;;;8.10;5.30;;;;;;;9.18;84.21;99266.19;5049920;28;20417;-58
2021/10/28 02:32:33;;;;;;;11.90;5.88;;;;;;;9.14;84.15;99264.78;5060397;28;20044;-59
2021/10/28 02:34:58;;;;;;;9.13;5.18;;;;;;;9.10;83.95;99268.56;5063010;28;20036;-59
2021/10/28 02:37:23;;;;;;;9.95;5.18;;;;;;;8.80;83.95;99212.94;5064614;28;20468;-58
2021/10/28 02:39:50;;;;;;;9.77;5.70;;;;;;;8.93;83.93;99236.97;5066970;28;20055;-59
2021/10/28 02:42:16;;;;;;;8.02;4.55;;;;;;;9.04;83.67;99249.13;5045064;28;20037;-59
2021/10/28 02:44:43;;;;;;;8.80;5.43;;;;;;;9.04;83.83;99260.31;5063671;28;20029;-59
2021/10/28 02:47:09;;;;;;;10.45;5.68;;;;;;;9.00;83.99;99250.31;5049706;28;20035;-59
2021/10/28 02:49:34;;;;;;;9.30;5.38;;;;;;;9.09;83.42;99252.19;5062411;28;20025;-59
2021/10/28 02:52:00;;;;;;;8.73;5.05;;;;;;;9.09;83.17;99253.94;5051262;28;20400;-59
2021/10/28 02:54:25;;;;;;;10.30;4.80;;;;;;;8.80;82.57;99205.97;5055291;28;20036;-59
2021/10/28 02:56:51;;;;;;;7.85;4.72;;;;;;;9.17;82.05;99256.75;5046392;28;20111;-59
2021/10/28 02:59:17;;;;;;;10.20;5.03;;;;;;;9.18;81.80;99256.66;5067187;28;20051;-59
2021/10/28 03:01:47;;;;;;;9.18;4.57;;;;;;;9.12;81.40;99238.13;5058530;28;20029;-59
2021/10/28 03:04:14;;;;;;;11.75;5.40;;;;;;;9.22;81.25;99242.47;5043114;28;20024;-59
2021/10/28 03:06:41;;;;;;;9.88;4.38;;;;;;;8.90;80.67;99198.31;5042209;28;20032;-60
2021/10/28 03:09:08;;;;;;;7.85;4.60;;;;;;;9.28;79.57;99254.16;5072766;28;20072;-60
2021/10/28 03:11:34;;;;;;;9.07;4.80;;;;;;;9.12;79.48;99222.56;5035064;28;20029;-60
2021/10/28 03:14:00;;;;;;;8.77;4.70;;;;;;;9.37;79.50;99256.03;5042468;28;20023;-60
2021/10/28 03:16:36;;;;;;;7.97;4.43;;;;;;;8.99;79.84;99196.75;5063674;28;20031;-60
2021/10/28 03:27:14;;;;;;;9.05;4.57;;;;;;;9.07;82.65;99248.03;5071361;28;20082;-60
2021/10/28 03:29:39;;;;;;;8.88;4.57;;;;;;;9.04;82.05;99247.34;5044089;28;20031;-60
2021/10/28 03:32:05;;;;;;;8.63;4.63;;;;;;;8.73;81.63;99199.63;5065243;28;20028;-60
2021/10/28 03:34:31;;;;;;;7.80;4.80;;;;;;;9.02;81.60;99240.63;5055333;28;20036;-60
2021/10/28 03:37:20;;;;;;;10.18;5.70;;;;;;;8.95;81.68;99221.28;5054376;28;20521;-60
2021/10/28 03:48:18;;;;;;;9.13;4.43;;;;;;;8.97;83.15;99243.56;5066340;28;20077;-60
2021/10/28 04:29:50;;;;;;;8.23;4.60;;;;;;;8.88;82.17;99246.06;5068897;28;20085;-60
2021/10/28 04:32:16;;;;;;;7.18;4.30;;;;;;;8.87;82.38;99249.59;5043473;28;20028;-60
2021/10/28 04:34:42;;;;;;;10.07;4.75;;;;;;;8.94;82.29;99261.94;5047416;28;20860;-60
2021/10/28 04:37:11;;;;;;;10.18;4.57;;;;;;;8.96;81.87;99254.06;5055748;28;20143;-60
2021/10/28 04:39:37;;;;;;;9.55;4.95;;;;;;;8.99;82.42;99259.03;5050287;28;20029;-60
2021/10/28 04:42:03;;;;;;;8.40;4.28;;;;;;;8.88;82.61;99261.63;5067301;28;20032;-60
2021/10/28 04:44:28;;;;;;;8.10;4.18;;;;;;;8.91;82.39;99259.63;5047971;28;20047;-60
2021/10/28 04:46:53;;;;;;;7.55;4.70;;;;;;;8.81;81.68;99236.13;5060248;28;20101;-60
2021/10/28 04:49:19;;;;;;;7.90;4.10;;;;;;;8.96;82.01;99254.91;5039165;28;20043;-60
2021/10/28 04:51:45;;;;;;;8.40;4.22;;;;;;;9.00;81.51;99264.09;5057978;28;20656;-60
2021/10/28 04:54:10;;;;;;;7.90;4.68;;;;;;;9.02;81.09;99257.00;5056852;28;20398;-60
2021/10/28 04:56:36;;;;;;;7.25;4.13;;;;;;;9.00;80.56;99251.13;5028244;28;20031;-60
2021/10/28 04:59:01;;;;;;;7.50;4.38;;;;;;;8.85;80.55;99213.38;5063664;28;20043;-60
2021/10/28 05:01:26;;;;;;;8.85;4.05;;;;;;;9.07;80.13;99253.22;5048465;28;20024;-60
2021/10/28 05:03:52;;;;;;;8.63;4.20;;;;;;;8.83;80.22;99205.75;5062508;28;20078;-60
2021/10/28 05:06:18;;;;;;;7.93;3.70;;;;;;;9.09;81.21;99251.34;5049621;28;20785;-60
2021/10/28 05:08:44;;;;;;;8.68;4.40;;;;;;;9.07;81.31;99251.44;5047408;28;20124;-60
2021/10/28 05:11:10;;;;;;;7.95;4.28;;;;;;;9.03;82.30;99242.25;5059650;28;20067;-60
2021/10/28 05:13:35;;;;;;;6.88;3.92;;;;;;;8.71;83.92;99205.88;5048737;28;20113;-60
2021/10/28 05:16:00;;;;;;;8.23;3.90;;;;;;;8.90;84.53;99239.78;5048414;28;20376;-60
2021/10/28 05:18:26;;;;;;;7.43;4.43;;;;;;;8.81;85.09;99238.72;5065045;28;20039;-60
2021/10/28 05:20:53;;;;;;;7.82;4.18;;;;;;;8.52;86.69;99199.47;5050550;28;20032;-60
2021/10/28 05:23:19;;;;;;;7.55;3.83;;;;;;;8.54;85.96;99201.97;5039608;28;20061;-61
2021/10/28 05:25:47;;;;;;;7.22;3.83;;;;;;;8.55;84.83;99199.25;5029547;28;20395;-60
2021/10/28 05:28:12;;;;;;;8.25;4.30;;;;;;;8.76;84.91;99237.44;5054323;28;20048;-60
2021/10/28 05:30:38;;;;;;;12.75;5.65;;;;;;;8.78;84.46;99233.81;5059675;28;20108;-59
2021/10/28 05:33:03;;;;;;;10.27;5.45;;;;;;;8.77;84.38;99232.13;5049767;28;20585;-61
2021/10/28 05:35:29;;;;;;;9.10;4.90;;;;;;;8.70;84.30;99230.13;5052025;28;20071;-59
2021/10/28 05:37:55;;;;;;;7.63;4.05;;;;;;;8.69;83.94;99229.31;5051540;28;20020;-59
2021/10/28 05:40:21;;;;;;;7.97;4.00;;;;;;;8.45;84.95;99206.06;5050157;28;20041;-59
2021/10/28 05:42:51;;;;;;;7.10;3.85;;;;;;;8.38;85.15;99194.53;5039047;28;20531;-60
2021/10/28 05:45:18;;;;;;;7.05;4.13;;;;;;;8.52;84.16;99215.03;5038201;28;20028;-60
2021/10/28 05:47:43;;;;;;;7.25;4.00;;;;;;;8.56;84.54;99231.19;5033964;28;20025;-60
2021/10/28 05:50:15;;;;;;;8.70;4.03;;;;;;;8.66;83.46;99230.38;5031250;28;20060;-59
2021/10/28 05:52:41;;;;;;;7.70;4.15;;;;;;;8.58;83.68;99227.53;5014923;28;20061;-60
2021/10/28 05:55:07;;;;;;;7.80;4.28;;;;;;;8.49;84.60;99210.09;5031339;28;20024;-59
2021/10/28 05:57:32;;;;;;;8.18;3.90;;;;;;;8.66;84.28;99226.94;5027596;28;20070;-59
2021/10/28 05:59:58;;;;;;;7.03;4.22;;;;;;;8.61;84.39;99226.47;5031401;28;20057;-60
2021/10/28 06:02:24;;;;;;;6.55;3.78;;;;;;;8.62;84.82;99231.56;5038661;28;20416;-59
2021/10/28 06:04:49;;;;;;;7.35;3.70;;;;;;;8.57;84.53;99225.06;5056003;28;20483;-60
2021/10/28 06:07:15;;;;;;;8.35;3.63;;;;;;;8.54;84.12;99220.09;5046975;28;20081;-59
2021/10/28 06:09:40;;;;;;;7.53;3.90;;;;;;;8.59;84.13;99230.97;5051633;28;20509;-59
2021/10/28 06:12:07;;;;;;;8.65;3.88;;;;;;;8.60;83.70;99227.44;5060080;28;20032;-60
2021/10/28 06:14:33;;;;;;;6.78;3.70;;;;;;;8.59;82.72;99226.59;5035354;28;20528;-60
2021/10/28 06:17:07;;;;;;;9.18;4.00;;;;;;;8.65;82.53;99231.31;5053588;28;20059;-60
2021/10/28 06:19:33;;;;;;;10.05;3.95;;;;;;;8.69;81.74;99225.88;5040789;28;20070;-60
2021/10/28 06:21:58;;;;;;;6.82;3.50;;;;;;;8.60;82.50;99227.44;5033185;28;20024;-60
2021/10/28 06:24:24;;;;;;;10.05;4.30;;;;;;;8.66;82.23;99217.41;5049351;28;20065;-60
2021/10/28 06:26:49;;;;;;;9.25;4.22;;;;;;;8.63;82.38;99229.78;5031259;28;20063;-60
2021/10/28 06:29:15;;;;;;;9.13;3.65;;;;;;;8.74;81.56;99234.13;5046244;28;20544;-60
2021/10/28 06:31:41;;;;;;;7.63;3.90;;;;;;;8.63;82.64;99224.59;5048761;28;20120;-59
2021/10/28 06:34:10;;;;;;;7.55;3.92;;;;;;;8.66;82.89;99239.91;5034283;28;20052;-60
2021/10/28 06:36:37;;;;;;;6.00;3.47;;;;;;;8.51;83.40;99231.53;5032358;28;20024;-60
2021/10/28 06:39:04;;;;;;;9.05;4.13;;;;;;;8.55;82.43;99220.00;5056033;28;20029;-60
2021/10/28 06:41:30;;;;;;;7.43;3.63;;;;;;;8.36;81.82;99191.19;5030796;28;20503;-60
2021/10/28 06:43:59;;;;;;;8.07;3.80;;;;;;;8.61;82.63;99245.44;5054271;28;20190;-60
2021/10/28 06:46:25;;;;;;;7.50;3.85;;;;;;;8.62;82.73;99249.69;5034837;28;20055;-59
2021/10/28 06:48:50;;;;;;;7.28;3.72;;;;;;;8.59;82.45;99249.91;5063454;28;20028;-60
2021/10/28 06:51:17;;;;;;;8.07;3.58;;;;;;;8.68;82.01;99245.81;5066488;28;20028;-59
2021/10/28 06:53:54;;;;;;;9.00;4.00;;;;;;;8.67;82.05;99244.19;5080450;28;20028;-60
2021/10/28 06:56:51;;;;;;;7.72;3.55;;;;;;;8.64;82.65;99250.41;5057448;28;20063;-60
2021/10/28 07:04:42;;;;;;;7.70;4.50;;;;;;;8.54;83.05;99252.06;5035031;28;20593;-60
2021/10/28 07:07:07;;;;;;;8.65;4.47;;;;;;;8.63;82.94;99264.31;5062444;28;20043;-59
2021/10/28 07:09:35;;;;;;;7.07;4.43;;;;;;;8.63;82.55;99258.28;5056915;28;20107;-59
2021/10/28 07:12:18;;;;;;;8.73;4.50;;;;;;;8.65;82.97;99272.81;5037176;28;20044;-60
2021/10/28 07:14:47;;;;;;;7.65;4.00;;;;;;;8.39;82.10;99222.06;5044192;28;20032;-60
2021/10/28 07:30:44;;;;;;;9.38;4.10;;;;;;;8.63;81.44;99266.06;5069393;28;20055;-60
2021/10/28 07:55:37;;;;;;;7.20;4.25;;;;;;;8.43;82.69;99247.69;5062985;28;20040;-60
2021/10/28 08:21:54;;;;;;;9.18;4.57;;;;;;;8.72;85.08;99272.31;5051802;28;20127;-60
2021/10/28 08:29:39;;;;;;;11.68;4.13;;;;;;;8.75;81.78;99249.59;5059282;28;20440;-60
2021/10/28 08:32:06;;;;;;;9.35;4.15;;;;;;;8.87;81.07;99258.22;5048544;28;20028;-60
2021/10/28 08:34:35;;;;;;;7.82;4.07;;;;;;;8.82;80.87;99255.94;5059181;28;20039;-60
2021/10/28 08:37:14;;;;;;;7.70;3.65;;;;;;;8.75;80.73;99252.19;5045333;28;20124;-60
2021/10/28 08:39:41;;;;;;;7.20;4.18;;;;;;;8.89;81.51;99258.91;5064012;28;20033;-60
2021/10/28 08:42:09;;;;;;;8.05;3.70;;;;;;;8.94;82.01;99254.16;5036171;28;20467;-60
2021/10/28 08:44:39;;;;;;;7.30;3.83;;;;;;;8.90;82.51;99257.13;5042406;28;20479;-61
2021/10/28 08:47:04;;;;;;;;;;;;;;;8.94;83.37;99251.56;5061850;28;20032;-59
2021/10/28 08:49:40;;;;;;;7.00;4.07;;;;;;;8.70;80.09;99215.41;5053980;28;20395;-60
2021/10/28 08:55:01;;;;;;;9.23;4.20;;;;;;;8.67;82.59;99200.09;5045110;28;20697;-60
2021/10/28 09:25:29;;;;;;;6.80;3.60;;;;;;;8.94;82.41;99230.81;5064171;28;20229;-59
2021/10/28 09:30:35;;;;;;;6.30;3.28;;;;;;;9.04;80.21;99238.75;5048587;28;20040;-59
2021/10/28 09:33:07;;;;;;;;;;;;;;;8.92;80.40;99235.31;5059952;28;20121;-60
2021/10/28 09:36:14;;;;;;;7.65;3.60;;;;;;;8.85;78.86;99227.19;5038457;28;21253;-59
2021/10/28 09:44:49;;;;;;;6.35;2.65;;;;;;;9.47;73.75;99224.13;5065577;28;20073;-60
2021/10/28 09:47:32;;;;;;;14.85;3.40;;;;;;;9.48;70.98;99185.09;5058230;28;20024;-60
2021/10/28 09:50:09;;;;;;;9.00;2.40;;;;;;;9.84;69.79;99216.81;5044332;28;20716;-60
2021/10/28 09:52:36;;;;;;;6.97;2.40;;;;;;;9.88;70.64;99212.19;5040543;28;20028;-59
2021/10/28 09:58:05;;;;;;;7.07;2.70;;;;;;;10.18;68.96;99225.25;5047059;28;20051;-60
2021/10/28 10:00:35;;;;;;;7.70;2.20;;;;;;;10.37;67.40;99214.19;5027227;28;20391;-59
2021/10/28 10:03:09;;;;;;;4.80;2.20;;;;;;;10.43;64.82;99206.81;5034018;28;20123;-60
2021/10/28 10:06:04;;;;;;;8.05;2.10;;;;;;;10.45;64.50;99197.91;5062588;28;20056;-60
2021/10/28 10:08:33;;;;;;;6.15;2.53;;;;;;;10.06;65.40;99126.69;5019351;28;20065;-60
2021/10/28 10:10:58;;;;;;;6.85;2.30;;;;;;;10.69;66.88;99215.00;5037539;28;20091;-60
2021/10/28 10:13:25;;;;;;;5.55;2.13;;;;;;;10.65;64.12;99191.03;5035485;28;20028;-60
2021/10/28 10:15:58;;;;;;;5.38;2.60;;;;;;;10.81;63.00;99197.53;5044462;28;20032;-60
2021/10/28 10:18:32;;;;;;;6.22;2.40;;;;;;;10.56;62.33;99158.81;5040504;28;20085;-60
2021/10/28 10:21:24;;;;;;;5.70;2.40;;;;;;;10.70;62.72;99156.84;5045666;28;20063;-60
2021/10/28 11:19:36;;;;;;;6.55;2.53;;;;;;;12.48;58.90;99127.00;5053942;28;20084;-61
2021/10/28 11:25:40;;;;;;;6.55;2.63;;;;;;;12.66;56.26;99106.19;5061345;28;20047;-60
2021/10/28 11:33:14;;;;;;;6.03;2.30;;;;;;;13.08;55.18;99101.22;5022345;28;20033;-59
2021/10/28 12:14:13;;;;;;;14.23;6.18;;;;;;;13.76;57.55;99050.22;5047510;28;20595;-60
2021/10/28 12:44:21;;;;;;;17.45;9.30;;;;;;;14.70;54.04;98990.91;5057553;28;20283;-61
2021/10/28 13:37:41;;;;;;;20.65;13.25;;;;;;;15.25;53.78;98957.19;5037309;28;20493;-61
2021/10/28 13:52:32;;;;;;;21.88;13.23;;;;;;;15.27;53.37;98914.13;5063430;28;20029;-60
2021/10/28 14:15:07;;;;;;;27.92;13.85;;;;;;;15.37;56.11;98954.06;5066398;28;20066;-61
2021/10/28 14:28:14;;;;;;;19.15;12.85;;;;;;;15.29;56.17;98945.41;5054968;28;20136;-61
2021/10/28 15:35:46;;;;;;;21.63;12.90;;;;;;;13.57;65.27;98907.53;5055160;28;20281;-58
2021/10/28 15:37:57;;;;;;;20.20;12.88;;;;;;;13.46;65.64;98902.59;5030979;28;20085;-59
2021/10/28 15:40:36;;;;;;;22.38;12.52;;;;;;;13.46;65.66;98903.41;5039161;28;20037;-58
2021/10/28 15:53:59;;;;;;;24.10;13.45;;;;;;;13.30;67.34;98908.50;5048349;28;20047;-59
2021/10/28 15:59:31;;;;;;;20.50;13.38;;;;;;;13.21;67.44;98906.81;5044705;28;20036;-58
2021/10/28 16:23:46;;;;;;;22.73;13.60;;;;;;;12.51;73.33;98936.31;5061503;28;20031;-58
2021/10/28 16:26:12;;;;;;;20.27;13.07;;;;;;;12.44;73.38;98940.50;5037310;28;20400;-59
2021/10/28 16:28:37;;;;;;;19.27;12.65;;;;;;;12.40;73.27;98934.75;5016708;28;20396;-59
2021/10/28 16:31:03;;;;;;;18.13;12.88;;;;;;;12.19;74.08;98934.19;5054777;28;20031;-58
2021/10/28 16:33:28;;;;;;;20.00;13.73;;;;;;;12.15;74.91;98940.69;5025433;28;20399;-59
2021/10/28 16:35:54;;;;;;;21.73;13.35;;;;;;;11.80;74.51;98901.34;5033320;28;20036;-59
2021/10/28 16:38:22;;;;;;;26.33;14.85;;;;;;;12.06;74.42;98940.56;5063417;28;20033;-59
2021/10/28 16:40:47;;;;;;;20.70;13.85;;;;;;;12.07;74.83;98946.63;5025886;28;20033;-59
2021/10/28 16:43:12;;;;;;;17.58;13.50;;;;;;;12.05;74.91;98949.38;5044932;28;20112;-58
2021/10/28 16:45:38;;;;;;;20.85;13.88;;;;;;;11.87;75.29;98923.25;5018734;28;20279;-58
2021/10/28 16:48:07;;;;;;;22.90;14.80;;;;;;;11.99;75.69;98943.91;5039434;28;20129;-58
2021/10/28 16:50:33;;;;;;;21.17;14.80;;;;;;;11.83;76.02;98941.94;5041771;28;20063;-59
2021/10/28 16:52:59;;;;;;;23.42;15.35;;;;;;;11.79;75.69;98951.81;5041494;28;20028;-59
2021/10/28 16:55:24;;;;;;;26.95;19.48;;;;;;;11.79;75.77;98948.38;5043154;28;20669;-59
2021/10/28 16:57:50;;;;;;;30.30;20.15;;;;;;;11.77;75.66;98955.53;5063544;28;20025;-59
2021/10/28 17:00:18;;;;;;;29.83;18.63;;;;;;;11.71;74.76;98947.31;5052351;28;20031;-59
2021/10/28 17:02:43;;;;;;;27.65;18.92;;;;;;;11.63;75.56;98964.63;5032424;28;20021;-58
2021/10/28 17:05:10;;;;;;;28.10;17.23;;;;;;;11.53;76.04;98964.66;5044363;28;20037;-58
2021/10/28 17:07:35;;;;;;;29.70;18.05;;;;;;;11.50;75.95;98960.56;5051867;28;20040;-59
2021/10/28 17:10:03;;;;;;;26.77;17.58;;;;;;;11.33;76.51;98971.69;5067346;28;20032;-59
2021/10/28 17:12:29;;;;;;;25.48;17.73;;;;;;;11.45;76.35;98969.75;5048938;28;20066;-59
2021/10/28 17:14:55;;;;;;;28.63;19.40;;;;;;;11.52;75.82;98979.47;5066831;28;20490;-58
2021/10/28 17:17:20;;;;;;;29.15;19.77;;;;;;;11.59;75.01;98984.94;5048513;28;20025;-58
2021/10/28 17:19:47;;;;;;;25.17;19.00;;;;;;;11.60;76.10;98981.34;5065106;28;20028;-58
2021/10/28 17:22:13;;;;;;;28.73;18.85;;;;;;;11.52;76.35;98983.88;5043620;28;20032;-60
2021/10/28 17:24:45;;;;;;;27.10;18.40;;;;;;;11.45;76.39;98988.81;5044272;28;20094;-60
2021/10/28 17:27:10;;;;;;;25.70;18.20;;;;;;;11.48;76.31;98988.53;5057680;28;20031;-60
2021/10/28 17:29:38;;;;;;;27.15;19.17;;;;;;;11.42;76.25;98983.88;5045356;28;20619;-60
2021/10/28 17:32:04;;;;;;;28.58;19.23;;;;;;;11.32;76.89;98983.91;5060017;28;20040;-60
2021/10/28 17:34:30;;;;;;;29.52;20.60;;;;;;;11.34;77.60;98995.00;5052585;28;20051;-61
2021/10/28 17:36:55;;;;;;;27.27;19.48;;;;;;;11.29;77.82;98994.59;5050335;28;20750;-60
2021/10/28 17:39:22;;;;;;;27.83;18.73;;;;;;;11.22;78.01;98977.88;5064230;28;20032;-60
2021/10/28 17:41:49;;;;;;;26.75;18.23;;;;;;;11.32;78.25;98989.09;5040445;28;20035;-60
2021/10/28 17:44:16;;;;;;;28.45;20.88;;;;;;;11.14;78.67;98986.38;5064109;28;20382;-60
2021/10/28 17:46:41;;;;;;;30.67;20.38;;;;;;;11.18;78.60;98994.75;5058066;28;20024;-60
2021/10/28 17:49:06;;;;;;;27.90;19.15;;;;;;;11.16;78.29;98997.47;5071479;28;20043;-61
2021/10/28 17:51:36;;;;;;;28.10;19.75;;;;;;;11.13;78.22;99002.97;5047833;28;20655;-61
2021/10/28 17:54:02;;;;;;;32.17;19.75;;;;;;;10.93;78.90;99002.19;5059300;28;20021;-61
2021/10/28 17:56:28;;;;;;;29.25;18.80;;;;;;;10.91;78.63;98988.44;5032516;28;20078;-61
2021/10/28 17:58:56;;;;;;;27.05;18.00;;;;;;;10.96;78.86;98993.25;5033179;28;20798;-60
2021/10/28 18:01:25;;;;;;;25.77;18.00;;;;;;;10.85;79.09;98962.19;5020490;28;20060;-61
2021/10/28 18:03:56;;;;;;;30.80;19.00;;;;;;;11.01;79.13;98996.28;5035947;28;20091;-61
2021/10/28 18:06:21;;;;;;;27.45;19.20;;;;;;;10.83;79.08;98961.50;5031868;28;20093;-61
2021/10/28 18:08:47;;;;;;;35.30;19.92;;;;;;;11.03;79.13;98996.94;5049555;28;20036;-60
2021/10/28 18:11:12;;;;;;;27.13;19.95;;;;;;;10.53;80.04;98945.91;5020812;28;20496;-60
2021/10/28 18:13:38;;;;;;;28.02;20.15;;;;;;;10.65;80.36;98997.78;5050833;28;20032;-60
2021/10/28 18:16:05;;;;;;;28.63;20.17;;;;;;;10.69;80.34;98996.53;5031505;28;20039;-61
2021/10/28 18:18:31;;;;;;;27.45;19.00;;;;;;;10.83;80.00;99000.53;5033451;28;20108;-61
2021/10/28 18:21:00;;;;;;;25.58;18.73;;;;;;;10.51;80.24;98966.03;5036004;28;20058;-61
2021/10/28 18:23:25;;;;;;;26.98;18.65;;;;;;;10.80;80.06;98996.41;4990268;28;20889;-61
2021/10/28 18:25:51;;;;;;;29.70;19.98;;;;;;;10.44;79.57;98958.88;5061687;28;20036;-61
2021/10/28 18:28:17;;;;;;;27.48;18.13;;;;;;;10.78;79.45;99008.72;5041500;28;20466;-61
2021/10/28 18:30:43;;;;;;;26.92;18.65;;;;;;;10.81;79.14;99013.66;5051690;28;20117;-62
2021/10/28 18:33:11;;;;;;;27.40;19.30;;;;;;;10.64;79.21;98998.72;5063781;28;20035;-61
2021/10/28 18:35:37;;;;;;;25.75;17.58;;;;;;;10.67;79.16;99016.66;5047478;28;20048;-62
2021/10/28 18:38:02;;;;;;;25.48;17.42;;;;;;;10.31;79.30;98962.56;4991387;28;20102;-61
2021/10/28 18:40:28;;;;;;;26.73;17.45;;;;;;;10.36;79.52;98967.34;5058895;28;20036;-61
2021/10/28 18:42:54;;;;;;;26.35;17.35;;;;;;;10.64;79.42;99017.78;5041517;28;20187;-61
2021/10/28 18:45:20;;;;;;;27.02;18.75;;;;;;;10.53;79.54;99007.47;5060803;28;20032;-61
2021/10/28 18:47:45;;;;;;;27.52;18.50;;;;;;;10.38;79.57;99002.63;5037598;28;20519;-61
2021/10/28 18:50:11;;;;;;;29.42;19.00;;;;;;;10.32;79.49;99013.59;5066226;28;20116;-61
2021/10/28 18:52:37;;;;;;;29.15;19.08;;;;;;;9.98;79.51;98967.13;5052756;28;20037;-61
2021/10/28 18:55:03;;;;;;;28.55;20.63;;;;;;;10.27;79.65;99007.13;4977588;28;20772;-60
2021/10/28 18:57:29;;;;;;;29.42;21.52;;;;;;;10.28;79.61;99001.78;5020583;28;20871;-61
2021/10/28 18:59:55;;;;;;;31.13;20.80;;;;;;;10.28;79.95;99016.56;5037820;28;20028;-61
2021/10/28 19:02:20;;;;;;;27.80;20.42;;;;;;;10.35;79.57;99015.94;5061346;28;20024;-61
2021/10/28 19:04:48;;;;;;;28.35;20.38;;;;;;;10.32;79.50;99015.38;5047552;28;20129;-61
2021/10/28 19:07:14;;;;;;;28.85;19.92;;;;;;;10.32;80.11;99013.59;5036152;28;20110;-61
2021/10/28 19:09:39;;;;;;;31.48;19.67;;;;;;;10.25;80.45;98999.44;5046697;28;20063;-61
2021/10/28 19:12:05;;;;;;;31.83;22.35;;;;;;;10.23;80.57;99011.75;5056272;28;20390;-61
2021/10/28 19:14:30;;;;;;;27.98;19.45;;;;;;;10.16;81.04;99008.84;5053346;28;20116;-61
2021/10/28 19:16:56;;;;;;;32.05;20.58;;;;;;;10.07;81.49;99004.44;5034576;28;20040;-61
2021/10/28 19:19:22;;;;;;;31.60;20.95;;;;;;;10.24;80.70;99016.00;5022269;28;20091;-61
2021/10/28 19:21:47;;;;;;;30.23;21.13;;;;;;;10.26;80.56;99010.66;5050352;28;20029;-61
2021/10/28 19:24:13;;;;;;;29.83;21.13;;;;;;;10.23;81.01;99011.75;5058154;28;20566;-61
2021/10/28 19:26:39;;;;;;;31.02;20.95;;;;;;;10.25;80.78;99024.63;5028854;28;20041;-61
2021/10/28 19:29:06;;;;;;;31.35;19.55;;;;;;;10.13;81.29;99008.28;5034946;28;20456;-61
2021/10/28 19:31:52;;;;;;;31.83;20.40;;;;;;;10.04;81.37;99009.94;5037550;28;20039;-64
2021/10/28 19:34:18;;;;;;;30.40;19.23;;;;;;;10.00;81.06;98990.34;5037740;28;21646;-60
2021/10/28 19:42:29;;;;;;;32.72;20.20;;;;;;;9.89;81.80;99003.44;5038061;28;20051;-61
2021/10/28 19:47:50;;;;;;;27.83;19.73;;;;;;;9.90;81.63;98999.88;4997286;28;20105;-61
2021/10/28 19:50:15;;;;;;;32.03;19.77;;;;;;;9.78;82.24;99000.00;5011707;28;20039;-60
2021/10/28 19:52:42;;;;;;;31.52;19.67;;;;;;;9.54;82.39;98995.06;5006408;28;20025;-61
2021/10/28 19:55:09;;;;;;;32.50;22.80;;;;;;;9.72;82.13;99007.47;5020465;28;20766;-61
2021/10/28 19:57:40;;;;;;;34.00;22.42;;;;;;;9.74;82.06;99005.56;5048587;28;20123;-61
2021/10/28 20:00:18;;;;;;;34.75;23.08;;;;;;;9.62;82.32;99002.22;5028920;28;20486;-61
2021/10/28 20:05:26;;;;;;;33.60;22.75;;;;;;;9.67;81.85;99001.81;5023898;28;20043;-61
2021/10/28 20:21:27;;;;;;;35.22;21.45;;;;;;;9.49;82.86;98993.81;5039680;28;20031;-61
2021/10/28 20:23:53;;;;;;;29.95;21.00;;;;;;;9.63;82.28;99001.25;4944535;28;20714;-61